• Join FlightAware (Why Join?)
  • Login
  • US Flag 
02:23AM EDT


 

Airport Tracker/Info


-or-


 

Live Flight TrackerFlight Track Log ✈ UCA596 ✈ 30-Oct-2013 ✈ KIAD - KBGM

Flight Track Log - Related Links

Times and Time Zones

All times are in EDT time to prevent confusion due to time zone crossing. See the UCA596 flight status page for this flight to view local times or setup timezone preferences in your user account.

Time Position Orientation Groundspeed Altitude Reporting Facility
EDT Latitude Longitude Course Direction KTS MPH feet Rate Location/Type
01:07PM 38.9667 -77.5333 North 163 188 2,600  Level Potomac TRACON
01:08PM 39.0167 -77.5500 345° North 181 208 3,900 1,260 Climbing Potomac TRACON
01:09PM 39.0667 -77.5500 360° North 191 220 5,200 1,260 Climbing Potomac TRACON
01:10PM 39.1167 -77.5333 14° North 198 228 6,500 1,380 Climbing Potomac TRACON
01:11PM 39.1667 -77.5333 360° North 194 223 7,700 1,260 Climbing Potomac TRACON
01:12PM 39.3037 -77.3054 North  Level Estimated
01:12PM 39.2419 -77.5183 North 190 219 9,700  Level Washington Center
01:13PM 39.2919 -77.5117 North 190 219 11,000 780 Climbing Washington Center
01:14PM 39.3506 -77.5025 North 190 219 11,300 4,020 Climbing Washington Center
01:15PM 39.4050 -77.4906 10° North 190 219 19,000 1,560 Climbing Washington Center
01:16PM 39.4486 -77.4864 North 181 208 14,400 -1,620 Descending Washington Center
01:17PM 39.4967 -77.4794 North 181 208 15,800 1,260 Climbing Washington Center
01:19PM 39.5861 -77.4603 North 172 198 18,200 1,080 Climbing New York Center
01:20PM 39.6383 -77.4544 North 167 192 19,000 360 Climbing New York Center
01:21PM 39.6928 -77.4514 North 187 215 19,000  Level New York Center
01:22PM 39.7658 -77.4531 359° North 224 258 19,000  Level New York Center
01:23PM 39.8267 -77.4453 North 237 273 19,000  Level New York Center
01:24PM 39.9000 -77.4036 24° Northeast 242 278 19,000  Level New York Center
01:25PM 39.9600 -77.3714 22° Northeast 259 298 19,000  Level New York Center
01:26PM 40.0353 -77.3322 22° Northeast 259 298 19,000  Level New York Center
01:27PM 40.0956 -77.2972 24° Northeast 259 298 19,000  Level New York Center
01:28PM 40.1708 -77.2581 22° Northeast 259 298 19,000  Level New York Center
01:29PM 40.2308 -77.2256 22° Northeast 259 298 19,000  Level New York Center
01:30PM 40.3042 -77.1836 24° Northeast 259 298 19,000  Level New York Center
01:31PM 40.3642 -77.1508 23° Northeast 259 298 19,000  Level New York Center
01:32PM 40.4392 -77.1114 22° Northeast 259 298 19,000  Level New York Center
01:33PM 40.4994 -77.0789 22° Northeast 259 298 19,000 -540 Level New York Center
01:34PM 40.5747 -77.0364 23° Northeast 259 298 18,000 -540 Descending New York Center
01:35PM 40.6325 -77.0033 23° Northeast 259 298 18,000  Level New York Center
01:36PM 40.7078 -76.9636 22° Northeast 259 298 18,000 -60 Level New York Center
01:37PM 40.7656 -76.9306 23° Northeast 259 298 17,900 -540 Descending New York Center
01:38PM 40.8386 -76.8878 24° Northeast 264 304 17,000 -480 Descending New York Center
01:39PM 40.8967 -76.8572 22° Northeast 259 298 17,000  Level New York Center
01:40PM 40.9589 -76.8217 23° Northeast 259 298 17,000  Level New York Center
01:41PM 41.0253 -76.7864 22° Northeast 254 292 17,000  Level New York Center
01:42PM 41.0897 -76.7481 24° Northeast 254 292 17,000  Level New York Center
01:43PM 41.1558 -76.7153 20° North 254 292 17,000  Level New York Center
01:44PM 41.2183 -76.6764 25° Northeast 254 292 17,000  Level New York Center
01:45PM 41.2825 -76.6408 23° Northeast 254 292 17,000  Level New York Center
01:47PM 41.4153 -76.5667 23° Northeast 244 281 17,000  Level New York Center
01:48PM 41.4797 -76.5306 23° Northeast 244 281 17,000  Level New York Center
01:49PM 41.5375 -76.4939 25° Northeast 244 281 17,000 -120 Level New York Center
01:50PM 41.6017 -76.4606 21° North 244 281 16,800 -900 Descending New York Center
01:51PM 41.6789 -76.4172 23° Northeast 258 297 15,200 -1,560 Descending New York Center
01:52PM 41.7517 -76.3733 24° Northeast 268 308 13,700 -1,500 Descending New York Center
01:53PM 41.8200 -76.3344 23° Northeast 268 308 12,200 -1,500 Descending New York Center
01:54PM 41.8822 -76.2950 25° Northeast 274 315 10,800 -1,500 Descending New York Center
01:55PM 41.9572 -76.2539 22° Northeast 274 315 9,300 -1,560 Descending New York Center
01:56PM 42.0342 -76.2072 24° Northeast 274 315 7,700 -1,500 Descending New York Center
01:57PM 42.1025 -76.1711 21° North 274 315 6,300 -1,500 Descending New York Center
01:58PM 42.1569 -76.1167 37° Northeast 251 289 4,800 -1,500 Descending New York Center
01:59PM 42.2006 -76.0697 39° Northeast 223 257 3,300 -1,020 Descending New York Center
02:00PM 42.2319 -76.0219 48° Northeast 194 223 2,800 -480 Descending New York Center
02:01PM 42.2425 -75.9722 74° East 158 182 2,400 3,060 Descending New York Center
02:02PM 42.2656 -75.9183 60° Northeast 158 182 9,000 3,300 Climbing New York Center
02:03PM 42.2889 -75.8639 60° Northeast 158 182 9,000  Level New York Center
02:04PM 42.3119 -75.8097 60° Northeast 158 182 9,000  Level New York Center
02:06PM 42.2424 -75.8961 231° Southwest  Level FlightAware Approximate